createdAt,value
2022-10-05T00:00:55.652Z,76.46
2022-10-05T00:03:24.108Z,76.55
2022-10-05T00:05:50.642Z,76.41
2022-10-05T00:08:25.144Z,76.80
2022-10-05T00:10:52.473Z,77.06
2022-10-05T00:13:28.113Z,76.79
2022-10-05T00:16:04.885Z,77.57
2022-10-05T00:18:32.543Z,77.06
2022-10-05T00:20:59.919Z,77.14
2022-10-05T00:23:30.919Z,77.72
2022-10-05T00:26:06.681Z,77.51
2022-10-05T00:28:33.163Z,77.36
2022-10-05T00:31:00.955Z,77.70
2022-10-05T00:33:27.935Z,77.71
2022-10-05T00:35:55.450Z,78.04
2022-10-05T00:38:22.365Z,77.85
2022-10-05T00:41:11.492Z,77.96
2022-10-05T00:44:08.268Z,78.46
2022-10-05T00:46:53.708Z,78.74
2022-10-05T00:49:43.550Z,78.43
2022-10-05T00:52:43.913Z,78.67
2022-10-05T00:55:30.665Z,78.47
2022-10-05T00:58:25.047Z,78.58
2022-10-05T01:01:27.194Z,78.64
2022-10-05T01:03:53.666Z,78.96
2022-10-05T01:06:43.444Z,79.07
2022-10-05T01:09:35.737Z,78.94
2022-10-05T01:12:09.002Z,77.96
2022-10-05T01:14:56.258Z,79.04
2022-10-05T01:17:45.140Z,79.47
2022-10-05T01:20:27.949Z,79.83
2022-10-05T01:23:22.124Z,79.48
2022-10-05T01:26:07.357Z,79.96
2022-10-05T01:28:44.035Z,79.68
2022-10-05T01:31:39.651Z,79.75
2022-10-05T01:34:43.017Z,80.09
2022-10-05T01:37:29.655Z,80.04
2022-10-05T01:40:00.492Z,80.07
2022-10-05T01:42:59.024Z,80.12
2022-10-05T01:45:52.857Z,80.49
2022-10-05T01:48:47.503Z,80.51
2022-10-05T01:51:41.953Z,80.34
2022-10-05T01:54:21.965Z,80.64
2022-10-05T01:57:29.999Z,80.53
2022-10-05T02:00:10.069Z,80.63
2022-10-05T02:02:50.328Z,80.81
2022-10-05T02:05:55.463Z,81.01
2022-10-05T02:08:30.324Z,81.00
2022-10-05T02:11:06.076Z,81.04
2022-10-05T02:13:32.636Z,81.09
2022-10-05T02:16:35.725Z,81.25
2022-10-05T02:19:11.836Z,81.63
2022-10-05T02:21:45.086Z,81.56
2022-10-05T02:24:22.053Z,82.04
2022-10-05T02:26:52.733Z,81.80
2022-10-05T02:29:23.829Z,81.95
2022-10-05T02:32:00.404Z,82.09
2022-10-05T02:34:41.454Z,81.75
2022-10-05T02:37:34.685Z,81.89
2022-10-05T02:40:41.411Z,81.73
2022-10-05T02:43:32.738Z,81.82
2022-10-05T02:46:15.243Z,81.88
2022-10-05T02:48:54.936Z,82.08
2022-10-05T02:51:30.229Z,81.93
2022-10-05T02:53:56.646Z,81.43
2022-10-05T02:56:44.505Z,81.93
2022-10-05T02:59:21.833Z,82.35
2022-10-05T03:01:56.267Z,82.24
2022-10-05T03:04:38.381Z,82.17
2022-10-05T03:07:20.817Z,81.96
2022-10-05T03:10:05.887Z,82.11
2022-10-05T03:12:52.921Z,82.33
2022-10-05T03:15:40.133Z,82.32
2022-10-05T03:18:18.875Z,82.37
2022-10-05T03:21:09.997Z,82.60
2022-10-05T03:23:42.585Z,82.63
2022-10-05T03:26:32.616Z,82.61
2022-10-05T03:29:06.469Z,82.61
2022-10-05T03:31:59.154Z,82.69
2022-10-05T03:34:32.973Z,83.21
2022-10-05T03:37:07.242Z,82.70
2022-10-05T03:39:46.471Z,82.72
2022-10-05T03:42:59.756Z,82.48
2022-10-05T03:45:49.274Z,82.62
2022-10-05T03:48:23.357Z,82.84
2022-10-05T03:51:05.099Z,82.73
2022-10-05T03:53:42.217Z,81.73
2022-10-05T03:56:18.206Z,82.91
2022-10-05T03:59:03.782Z,82.75
2022-10-05T04:01:42.172Z,83.13
2022-10-05T04:04:15.717Z,82.94
2022-10-05T04:06:47.999Z,83.33
2022-10-05T04:09:20.553Z,83.13
2022-10-05T04:11:54.123Z,83.16
2022-10-05T04:14:37.824Z,83.55
2022-10-05T04:17:33.587Z,83.25
2022-10-05T04:20:06.091Z,83.58
2022-10-05T04:22:43.834Z,83.60
2022-10-05T04:25:29.127Z,83.56
2022-10-05T04:28:17.397Z,84.07
2022-10-05T04:30:47.698Z,84.13
2022-10-05T04:33:15.923Z,83.84
2022-10-05T04:35:50.093Z,84.07
2022-10-05T04:38:49.087Z,84.18
2022-10-05T04:41:33.948Z,84.05
2022-10-05T04:44:39.778Z,84.17
2022-10-05T04:47:28.599Z,84.23
2022-10-05T04:50:04.316Z,83.92
2022-10-05T04:52:36.650Z,84.13
2022-10-05T04:55:30.144Z,83.88
2022-10-05T04:58:17.633Z,83.69
2022-10-05T05:01:12.966Z,83.58
2022-10-05T05:04:04.552Z,83.55
2022-10-05T05:06:45.621Z,83.34
2022-10-05T05:09:38.078Z,83.23
2022-10-05T05:12:10.493Z,83.43
2022-10-05T05:14:53.679Z,83.33
2022-10-05T05:17:34.056Z,83.05
2022-10-05T05:20:18.235Z,82.90
2022-10-05T05:23:08.929Z,82.76
2022-10-05T05:26:05.778Z,82.72
2022-10-05T05:28:58.506Z,82.61
2022-10-05T05:31:33.207Z,82.34
2022-10-05T05:34:19.999Z,82.59
2022-10-05T05:37:09.166Z,82.58
2022-10-05T05:39:44.729Z,82.52
2022-10-05T05:42:21.476Z,82.36
2022-10-05T05:44:56.013Z,82.65
2022-10-05T05:47:37.756Z,82.74
2022-10-05T05:50:33.193Z,83.01
2022-10-05T05:53:10.867Z,82.93
2022-10-05T05:55:46.139Z,82.93
2022-10-05T05:58:27.273Z,83.11
2022-10-05T06:01:20.226Z,83.60
2022-10-05T06:04:10.653Z,83.25
2022-10-05T06:06:42.372Z,83.54
2022-10-05T06:09:43.208Z,83.68
2022-10-05T06:12:41.475Z,83.91
2022-10-05T06:15:24.484Z,84.17
2022-10-05T06:17:55.868Z,83.52
2022-10-05T06:20:30.699Z,83.94
2022-10-05T06:23:04.777Z,83.53
2022-10-05T06:25:50.716Z,83.23
2022-10-05T06:28:19.526Z,83.12
2022-10-05T06:31:11.257Z,83.60
2022-10-05T06:33:52.391Z,83.20
2022-10-05T06:36:59.549Z,83.47
2022-10-05T06:39:33.483Z,83.19
2022-10-05T06:42:22.423Z,83.46
2022-10-05T06:45:38.655Z,83.29
2022-10-05T06:48:24.387Z,83.01
2022-10-05T06:51:26.628Z,83.10
2022-10-05T06:54:28.019Z,82.98
2022-10-05T06:57:33.179Z,82.81
2022-10-05T07:00:15.809Z,82.95
2022-10-05T07:02:52.240Z,82.57
2022-10-05T07:05:24.805Z,82.74
2022-10-05T07:08:13.637Z,82.85
2022-10-05T07:11:07.270Z,82.82
2022-10-05T07:13:55.308Z,82.82
2022-10-05T07:16:50.491Z,82.92
2022-10-05T07:19:44.972Z,82.88
2022-10-05T07:22:23.654Z,82.15
2022-10-05T07:25:21.168Z,82.57
2022-10-05T07:27:55.631Z,82.34
2022-10-05T07:30:22.672Z,82.47
2022-10-05T07:32:55.887Z,82.52
2022-10-05T07:35:51.625Z,82.68
2022-10-05T07:38:45.871Z,82.71
2022-10-05T07:41:23.798Z,82.82
2022-10-05T07:44:02.434Z,82.70
2022-10-05T07:46:51.125Z,83.02
2022-10-05T07:49:32.442Z,83.19
2022-10-05T07:52:06.835Z,82.95
2022-10-05T07:54:44.150Z,83.50
2022-10-05T07:57:29.886Z,83.22
2022-10-05T08:00:05.785Z,83.10
2022-10-05T08:02:59.952Z,83.30
2022-10-05T08:05:30.924Z,83.11
2022-10-05T08:08:13.319Z,82.97
2022-10-05T08:10:55.111Z,83.46
2022-10-05T08:13:35.135Z,83.62
2022-10-05T08:16:05.851Z,83.43
2022-10-05T08:19:00.503Z,83.52
2022-10-05T08:21:40.097Z,83.49
2022-10-05T08:24:18.932Z,83.51
2022-10-05T08:26:51.828Z,83.29
2022-10-05T08:29:32.869Z,83.23
2022-10-05T08:32:05.052Z,82.83
2022-10-05T08:34:53.315Z,83.28
2022-10-05T08:37:40.521Z,82.89
2022-10-05T08:40:18.858Z,83.04
2022-10-05T08:43:37.608Z,82.95
2022-10-05T08:46:22.354Z,82.86
2022-10-05T08:49:19.581Z,82.78
2022-10-05T08:52:23.587Z,82.68
2022-10-05T08:55:22.848Z,82.78
2022-10-05T08:58:18.448Z,82.92
2022-10-05T09:01:14.253Z,82.12
2022-10-05T09:04:11.431Z,82.65
2022-10-05T09:07:16.356Z,82.01
2022-10-05T09:10:00.811Z,82.05
2022-10-05T09:12:50.191Z,82.00
2022-10-05T09:15:52.224Z,82.12
2022-10-05T09:18:37.440Z,82.11
2022-10-05T09:21:13.989Z,81.70
2022-10-05T09:23:44.929Z,81.69
2022-10-05T09:26:50.073Z,81.55
2022-10-05T09:29:38.389Z,81.37
2022-10-05T09:32:40.712Z,81.41
2022-10-05T09:35:21.204Z,81.45
2022-10-05T09:37:59.909Z,81.39
2022-10-05T09:40:54.996Z,81.89
2022-10-05T09:43:40.232Z,81.02
2022-10-05T09:46:21.894Z,81.54
2022-10-05T09:49:11.437Z,80.56
2022-10-05T09:52:06.041Z,81.26
2022-10-05T09:54:56.783Z,80.53
2022-10-05T09:57:53.203Z,80.80
2022-10-05T10:00:34.767Z,80.51
2022-10-05T10:03:52.272Z,80.81
2022-10-05T10:06:39.680Z,80.54
2022-10-05T10:09:18.277Z,80.54
2022-10-05T10:12:16.886Z,80.32
2022-10-05T10:15:07.942Z,79.74
2022-10-05T10:17:53.815Z,80.28
2022-10-05T10:20:20.229Z,80.03
2022-10-05T10:23:09.767Z,79.88
2022-10-05T10:25:58.388Z,79.57
2022-10-05T10:28:43.352Z,79.24
2022-10-05T10:31:37.722Z,78.83
2022-10-05T10:35:04.020Z,79.41
2022-10-05T10:37:58.434Z,78.89
2022-10-05T10:40:38.887Z,79.63
2022-10-05T10:43:41.082Z,79.13
2022-10-05T10:46:20.554Z,78.74
2022-10-05T10:49:25.987Z,78.48
2022-10-05T10:52:09.005Z,78.81
2022-10-05T10:54:58.373Z,77.96
2022-10-05T10:57:44.766Z,78.36
2022-10-05T11:00:39.120Z,78.14
2022-10-05T11:03:42.064Z,77.46
2022-10-05T11:06:33.366Z,77.70
2022-10-05T11:09:31.442Z,77.39
2022-10-05T11:12:10.424Z,76.41
2022-10-05T11:15:06.394Z,76.93
2022-10-05T11:17:59.419Z,76.80
2022-10-05T11:20:59.729Z,76.45
2022-10-05T11:23:47.559Z,76.05
2022-10-05T11:26:57.855Z,76.43
2022-10-05T11:30:10.613Z,76.47
2022-10-05T11:32:56.137Z,75.34
2022-10-05T11:35:36.418Z,74.99
2022-10-05T11:38:36.704Z,75.58
2022-10-05T11:41:12.221Z,74.11
2022-10-05T11:43:47.464Z,73.81
2022-10-05T11:46:38.714Z,74.70
2022-10-05T11:49:21.879Z,73.73
2022-10-05T11:52:10.032Z,73.01
2022-10-05T11:55:10.350Z,73.63
2022-10-05T11:57:47.899Z,73.23
2022-10-05T12:00:23.708Z,73.37
2022-10-05T12:03:03.105Z,73.49
2022-10-05T12:05:48.197Z,72.95
2022-10-05T12:08:53.663Z,73.26
2022-10-05T12:11:44.022Z,72.38
2022-10-05T12:14:17.867Z,71.43
2022-10-05T12:16:49.446Z,70.68
2022-10-05T12:19:29.732Z,72.95
2022-10-05T12:21:56.226Z,70.16
2022-10-05T12:24:37.576Z,70.06
2022-10-05T12:27:25.234Z,70.41
2022-10-05T12:30:18.602Z,70.51
2022-10-05T12:32:55.874Z,69.36
2022-10-05T12:35:48.406Z,69.43
2022-10-05T12:39:03.534Z,69.75
2022-10-05T12:41:38.411Z,68.63
2022-10-05T12:44:11.229Z,68.39
2022-10-05T12:47:03.922Z,68.26
2022-10-05T12:50:05.349Z,68.06
2022-10-05T12:53:14.915Z,67.42
2022-10-05T12:56:06.029Z,66.67
2022-10-05T12:58:38.915Z,66.21
2022-10-05T13:01:25.318Z,67.15
2022-10-05T13:04:38.341Z,67.59
2022-10-05T13:07:12.658Z,67.21
2022-10-05T13:09:54.657Z,65.63
2022-10-05T13:12:38.693Z,66.75
2022-10-05T13:15:20.045Z,65.39
2022-10-05T13:18:14.956Z,65.43
2022-10-05T13:20:54.339Z,65.08
2022-10-05T13:23:49.497Z,65.12
2022-10-05T13:26:27.669Z,64.54
2022-10-05T13:29:26.713Z,65.54
2022-10-05T13:32:15.203Z,65.71
2022-10-05T13:35:11.380Z,65.75
2022-10-05T13:38:08.335Z,64.92
2022-10-05T13:40:57.877Z,65.24
2022-10-05T13:43:31.688Z,64.67
2022-10-05T13:46:12.660Z,64.52
2022-10-05T13:49:00.729Z,65.01
2022-10-05T13:51:54.556Z,64.94
2022-10-05T13:54:20.965Z,64.99
2022-10-05T13:57:08.676Z,66.48
2022-10-05T13:59:55.423Z,66.00
2022-10-05T14:02:38.198Z,66.24
2022-10-05T14:05:19.761Z,66.41
2022-10-05T14:07:51.127Z,66.54
2022-10-05T14:10:32.661Z,66.83
2022-10-05T14:13:00.805Z,66.95
2022-10-05T14:15:38.461Z,67.15
2022-10-05T14:18:28.601Z,67.47
2022-10-05T14:21:13.171Z,67.05
2022-10-05T14:23:40.064Z,67.50
2022-10-05T14:26:39.064Z,67.89
2022-10-05T14:29:14.320Z,67.47
2022-10-05T14:31:48.004Z,67.01
2022-10-05T14:34:41.829Z,67.29
2022-10-05T14:37:24.635Z,66.41
2022-10-05T14:39:54.599Z,66.00
2022-10-05T14:42:28.671Z,65.45
2022-10-05T14:45:17.649Z,66.23
2022-10-05T14:48:02.073Z,65.86
2022-10-05T14:50:31.245Z,65.74
2022-10-05T14:53:21.126Z,65.77
2022-10-05T14:56:25.133Z,64.84
2022-10-05T14:59:21.196Z,64.80
2022-10-05T15:02:19.649Z,64.09
2022-10-05T15:05:15.208Z,63.30
2022-10-05T15:07:44.414Z,62.06
2022-10-05T15:10:38.038Z,62.07
2022-10-05T15:13:24.089Z,61.51
2022-10-05T15:15:56.765Z,61.03
2022-10-05T15:18:32.001Z,60.50
2022-10-05T15:21:13.976Z,61.33
2022-10-05T15:23:47.179Z,61.03
2022-10-05T15:26:25.065Z,61.18
2022-10-05T15:29:01.405Z,61.31
2022-10-05T15:31:42.816Z,61.58
2022-10-05T15:34:42.021Z,62.08
2022-10-05T15:37:17.691Z,61.30
2022-10-05T15:39:59.962Z,61.64
2022-10-05T15:42:38.197Z,61.76
2022-10-05T15:45:30.519Z,61.89
2022-10-05T15:48:07.827Z,62.20
2022-10-05T15:51:16.886Z,62.53
2022-10-05T15:54:43.151Z,63.00
2022-10-05T15:57:20.739Z,62.84
2022-10-05T16:00:03.974Z,63.33
2022-10-05T16:03:01.888Z,63.35
2022-10-05T16:06:04.166Z,63.48
2022-10-05T16:08:51.746Z,63.09
2022-10-05T16:11:36.541Z,62.87
2022-10-05T16:14:40.537Z,63.30
2022-10-05T16:17:44.907Z,63.52
2022-10-05T16:20:42.800Z,63.55
2022-10-05T16:23:09.222Z,63.16
2022-10-05T16:26:01.362Z,63.46
2022-10-05T16:29:25.276Z,63.79
2022-10-05T16:32:04.291Z,63.86
2022-10-05T16:34:49.557Z,64.08
2022-10-05T16:37:45.305Z,64.17
2022-10-05T16:40:20.283Z,64.27
2022-10-05T16:43:02.300Z,64.02
2022-10-05T16:45:47.065Z,63.89
2022-10-05T16:48:27.892Z,64.20
2022-10-05T16:51:23.150Z,64.45
2022-10-05T16:54:01.396Z,64.19
2022-10-05T16:56:37.451Z,63.84
2022-10-05T16:59:36.589Z,64.46
2022-10-05T17:02:22.613Z,64.73
2022-10-05T17:05:22.400Z,64.75
2022-10-05T17:08:03.754Z,65.18
2022-10-05T17:10:38.202Z,65.12
2022-10-05T17:13:07.592Z,64.87
2022-10-05T17:16:04.057Z,65.08
2022-10-05T17:19:00.566Z,65.09
2022-10-05T17:21:41.303Z,65.19
2022-10-05T17:24:33.570Z,65.29
2022-10-05T17:27:17.641Z,65.59
2022-10-05T17:29:51.780Z,65.66
2022-10-05T17:32:18.253Z,65.58
2022-10-05T17:35:04.033Z,66.02
2022-10-05T17:37:31.765Z,66.07
2022-10-05T17:39:58.909Z,65.61
2022-10-05T17:42:31.557Z,65.95
2022-10-05T17:45:00.007Z,66.19
2022-10-05T17:47:58.474Z,66.34
2022-10-05T17:51:01.848Z,66.15
2022-10-05T17:53:52.737Z,66.26
2022-10-05T17:56:21.988Z,66.65
2022-10-05T17:58:54.321Z,66.63
2022-10-05T18:01:40.361Z,66.80
2022-10-05T18:04:13.087Z,66.74
2022-10-05T18:06:48.039Z,66.74
2022-10-05T18:09:16.926Z,66.68
2022-10-05T18:11:47.945Z,66.61
2022-10-05T18:14:25.061Z,66.83
2022-10-05T18:17:02.011Z,67.29
2022-10-05T18:19:33.103Z,67.30
2022-10-05T18:22:06.056Z,67.45
2022-10-05T18:24:52.970Z,67.35
2022-10-05T18:27:49.656Z,67.52
2022-10-05T18:30:25.072Z,67.62
2022-10-05T18:33:27.983Z,67.75
2022-10-05T18:36:16.965Z,67.84
2022-10-05T18:39:19.863Z,68.47
2022-10-05T18:41:57.747Z,68.47
2022-10-05T18:44:43.226Z,68.41
2022-10-05T18:47:34.414Z,68.42
2022-10-05T18:50:17.323Z,68.62
2022-10-05T18:53:11.887Z,68.60
2022-10-05T18:55:45.045Z,68.94
2022-10-05T18:58:22.376Z,69.07
2022-10-05T19:01:10.645Z,69.26
2022-10-05T19:04:13.932Z,69.44
2022-10-05T19:06:41.214Z,69.54
2022-10-05T19:09:35.248Z,69.62
2022-10-05T19:12:29.253Z,69.68
2022-10-05T19:15:06.844Z,69.88
2022-10-05T19:17:48.050Z,69.98
2022-10-05T19:20:27.096Z,70.05
2022-10-05T19:23:22.231Z,70.20
2022-10-05T19:25:55.360Z,70.45
2022-10-05T19:28:34.100Z,70.85
2022-10-05T19:31:12.844Z,70.98
2022-10-05T19:34:01.509Z,71.51
2022-10-05T19:36:43.804Z,71.78
2022-10-05T19:39:21.315Z,72.50
2022-10-05T19:42:15.291Z,73.00
2022-10-05T19:45:00.096Z,75.81
2022-10-05T19:48:03.829Z,76.75
2022-10-05T19:50:33.546Z,78.57
2022-10-05T19:53:08.050Z,78.99
2022-10-05T19:55:39.491Z,79.56
2022-10-05T19:58:22.665Z,78.98
2022-10-05T20:01:07.789Z,79.42
2022-10-05T20:03:37.857Z,79.91
2022-10-05T20:06:07.262Z,80.39
2022-10-05T20:08:39.600Z,80.27
2022-10-05T20:11:09.791Z,80.07
2022-10-05T20:13:39.054Z,79.97
2022-10-05T20:16:33.456Z,79.83
2022-10-05T20:19:18.633Z,79.93
2022-10-05T20:21:48.500Z,79.50
2022-10-05T20:24:23.355Z,79.66
2022-10-05T20:27:01.902Z,80.03
2022-10-05T20:29:30.118Z,79.87
2022-10-05T20:31:56.842Z,79.85
2022-10-05T20:34:24.017Z,79.74
2022-10-05T20:36:51.058Z,79.80
2022-10-05T20:39:18.646Z,80.16
2022-10-05T20:41:45.632Z,80.34
2022-10-05T20:44:13.239Z,80.61
2022-10-05T20:46:41.605Z,80.66
2022-10-05T20:49:10.550Z,80.89
2022-10-05T20:51:40.382Z,81.60
2022-10-05T20:54:07.889Z,81.28
2022-10-05T20:56:34.771Z,81.73
2022-10-05T20:59:01.318Z,81.80
2022-10-05T21:01:28.854Z,81.80
2022-10-05T21:03:55.786Z,82.26
2022-10-05T21:06:22.776Z,82.19
2022-10-05T21:08:51.327Z,82.16
2022-10-05T21:11:17.842Z,82.37
2022-10-05T21:13:47.541Z,82.30
2022-10-05T21:16:16.648Z,79.64
2022-10-05T21:18:46.751Z,79.46
2022-10-05T21:21:17.942Z,79.48
2022-10-05T21:23:45.699Z,80.77
2022-10-05T21:26:12.780Z,82.23
2022-10-05T21:28:39.905Z,82.65
2022-10-05T21:31:08.095Z,83.66
2022-10-05T21:33:35.387Z,84.05
2022-10-05T21:36:01.989Z,84.29
2022-10-05T21:38:29.603Z,83.84
2022-10-05T21:40:56.381Z,83.44
2022-10-05T21:43:22.831Z,83.70
2022-10-05T21:45:50.365Z,82.90
2022-10-05T21:48:18.470Z,83.35
2022-10-05T21:50:45.676Z,82.94
2022-10-05T21:53:14.673Z,82.92
2022-10-05T21:55:44.095Z,82.97
2022-10-05T21:58:13.248Z,82.53
2022-10-05T22:00:40.998Z,82.55
2022-10-05T22:03:08.528Z,82.89
2022-10-05T22:05:35.546Z,82.99
2022-10-05T22:08:03.401Z,82.45
2022-10-05T22:10:30.366Z,82.02
2022-10-05T22:13:01.493Z,82.11
2022-10-05T22:15:29.960Z,81.47
2022-10-05T22:17:59.711Z,81.39
2022-10-05T22:20:30.111Z,81.41
2022-10-05T22:22:56.690Z,81.07
2022-10-05T22:25:23.154Z,80.82
2022-10-05T22:27:50.029Z,80.83
2022-10-05T22:30:16.927Z,80.96
2022-10-05T22:32:43.998Z,80.24
2022-10-05T22:35:11.773Z,80.11
2022-10-05T22:37:38.637Z,79.67
2022-10-05T22:40:06.655Z,80.16
2022-10-05T22:42:33.616Z,79.56
2022-10-05T22:45:00.165Z,79.48
2022-10-05T22:47:26.629Z,79.09
2022-10-05T22:49:53.100Z,79.01
2022-10-05T22:52:19.569Z,78.91
2022-10-05T22:54:46.016Z,79.03
2022-10-05T22:57:12.469Z,78.33
2022-10-05T22:59:38.935Z,78.73
2022-10-05T23:02:05.546Z,78.17
2022-10-05T23:04:32.070Z,77.95
2022-10-05T23:06:58.900Z,77.93
2022-10-05T23:09:25.364Z,77.56
2022-10-05T23:11:54.134Z,77.44
2022-10-05T23:14:20.917Z,76.95
2022-10-05T23:16:47.736Z,76.83
2022-10-05T23:19:14.259Z,76.32
2022-10-05T23:21:40.719Z,75.65
2022-10-05T23:24:07.441Z,75.66
2022-10-05T23:26:34.635Z,74.98
2022-10-05T23:29:01.127Z,74.43
2022-10-05T23:31:30.655Z,74.46
2022-10-05T23:33:57.249Z,74.54
2022-10-05T23:36:26.776Z,74.52
2022-10-05T23:38:53.395Z,74.21
2022-10-05T23:41:20.303Z,74.26
2022-10-05T23:43:47.111Z,74.37
2022-10-05T23:46:14.225Z,74.23
2022-10-05T23:48:40.759Z,74.53
2022-10-05T23:51:09.414Z,74.81
2022-10-05T23:53:35.952Z,75.16
2022-10-05T23:56:02.971Z,75.30
2022-10-05T23:58:30.094Z,75.67
